• Join FlightAware (Why Join?)
  • Login
  • US Flag 
 
03:00PM EST


 

Airport Tracker/Info


-or-


 

Live Flight TrackerFlight Track Log ✈ SLI2119 ✈ 16-Aug-2013 ✈ MMLP / LAP - MMCL / CUL

Flight Track Log - Related Links

Times and Time Zones

All times are in EDT time to prevent confusion due to time zone crossing. See the SLI2119 flight status page for this flight to view local times or setup timezone preferences in your user account.

Time Position Orientation Groundspeed Altitude Reporting Facility
EDT Latitude Longitude Course Direction KTS MPH feet Rate Location/Type
08:17PM 24.2154 -109.7876 75° East  Level Estimated
08:18PM 24.2272 -109.7397 75° East  Level Estimated
08:19PM 24.2390 -109.6917 75° East  Level Estimated
08:20PM 24.2507 -109.6437 75° East  Level Estimated
08:21PM 24.2625 -109.5957 75° East  Level Estimated
08:22PM 24.2742 -109.5477 75° East  Level Estimated
08:23PM 24.2859 -109.4997 75° East  Level Estimated
08:24PM 24.2976 -109.4517 75° East  Level Estimated
08:25PM 24.3093 -109.4037 75° East  Level Estimated
08:26PM 24.3210 -109.3557 75° East  Level Estimated
08:27PM 24.3326 -109.3076 75° East  Level Estimated
08:28PM 24.3443 -109.2596 75° East  Level Estimated
08:29PM 24.3559 -109.2115 75° East  Level Estimated
08:30PM 24.3675 -109.1635 75° East  Level Estimated
08:31PM 24.3791 -109.1154 75° East  Level Estimated
08:32PM 24.3907 -109.0673 75° East  Level Estimated
08:33PM 24.4023 -109.0192 75° East  Level Estimated
08:34PM 24.4138 -108.9711 75° East  Level Estimated
08:35PM 24.4254 -108.9230 75° East  Level Estimated
08:36PM 24.4369 -108.8749 75° East  Level Estimated
08:37PM 24.4484 -108.8268 75° East  Level Estimated
08:38PM 24.4599 -108.7786 75° East  Level Estimated
08:39PM 24.4714 -108.7305 75° East  Level Estimated
08:40PM 24.4828 -108.6823 75° East  Level Estimated
08:41PM 24.4943 -108.6341 75° East  Level Estimated
08:42PM 24.5057 -108.5860 75° East  Level Estimated
08:43PM 24.5171 -108.5378 75° East  Level Estimated
08:44PM 24.5285 -108.4896 75° East  Level Estimated
08:45PM 24.5399 -108.4414 75° East  Level Estimated
08:46PM 24.5513 -108.3932 75° East  Level Estimated
08:47PM 24.5626 -108.3450 75° East  Level Estimated
08:48PM 24.5739 -108.2968 75° East  Level Estimated
08:49PM 24.5853 -108.2485 76° East  Level Estimated
08:50PM 24.5966 -108.2003 76° East  Level Estimated
08:51PM 24.6079 -108.1520 76° East  Level Estimated
08:52PM 24.6192 -108.1038 76° East  Level Estimated
08:53PM 24.6304 -108.0555 76° East  Level Estimated
08:54PM 24.6417 -108.0072 76° East  Level Estimated
08:55PM 24.6529 -107.9589 76° East  Level Estimated
08:56PM 24.6641 -107.9107 76° East  Level Estimated
08:57PM 24.6753 -107.8624 76° East  Level Estimated
08:58PM 24.6865 -107.8140 76° East  Level Estimated
08:59PM 24.6977 -107.7657 76° East  Level Estimated
09:00PM 24.7088 -107.7174 76° East  Level Estimated
09:01PM 24.7199 -107.6691 76° East  Level Estimated
09:02PM 24.7311 -107.6207 76° East  Level Estimated
09:03PM 24.7422 -107.5723 76° East  Level Estimated
09:04PM 24.7533 -107.5240 76° East  Level Estimated
09:05PM 24.7643 -107.4756 76° East  Level Estimated
09:06PM 24.7645 -107.4747 76° East  Level Estimated
09:07PM 24.7645 -107.4747 138° Southeast  Level Estimated
09:08PM 24.7645 -107.4747 138° Southeast  Level Estimated
09:09PM 24.7645 -107.4747 138° Southeast  Level Estimated
09:10PM 24.7645 -107.4747 138° Southeast  Level Estimated
09:11PM 24.7645 -107.4747 138° Southeast  Level Estimated
09:12PM 24.7645 -107.4747 138° Southeast  Level Estimated
09:13PM 24.7645 -107.4747 138° Southeast  Level Estimated
09:14PM 24.7645 -107.4747 138° Southeast  Level Estimated
09:15PM 24.7645 -107.4747 138° Southeast  Level Estimated
09:16PM 24.7645 -107.4747 138° Southeast  Level Estimated
09:17PM 24.7645 -107.4747 138° Southeast  Level Estimated
09:18PM 24.7645 -107.4747 138° Southeast  Level Estimated
09:19PM 24.7645 -107.4747 138° Southeast  Level Estimated
09:20PM 24.7645 -107.4747 138° Southeast  Level Estimated
09:21PM 24.7645 -107.4747 138° Southeast  Level Estimated